Lydd, United Kingdom
Current Conditions -  °F | °C
As of 2:20 PM on Friday 24 Oct 2014 (Local Time) from EGMD Reporting Station
Light Rain Light Rain  
Wind Chill: 61°   Ceiling: 300
Heat Index: 61°   Visibility: 1.8mi
Dew Point: 61°   Wind: 17mph
Humidity: 100%   Direction: 220°SW
Pressure: 29.97"   Gusts: NA
Location:  50.95°N, 0.91°E
Report Text: EGMD 241320Z 22015KT 3000 -RADZ BKN003 16/16 Q1015
Loading
Personal Weather Stations






























Interactive Weather Map
Tropical Storm Tracking
New forecast layout! Learn more

10-Day Weather Forecast

Advertisements
Track Severe Weather on mobile